createdAt,value
2019-03-13T00:02:30.457Z,98093.16
2019-03-13T00:05:03.940Z,98095.67
2019-03-13T00:07:36.657Z,98084.85
2019-03-13T00:10:11.245Z,98087.30
2019-03-13T00:12:44.172Z,98081.05
2019-03-13T00:15:16.333Z,98078.60
2019-03-13T00:17:48.686Z,98076.47
2019-03-13T00:20:21.706Z,98071.86
2019-03-13T00:22:54.646Z,98057.81
2019-03-13T00:25:26.961Z,98052.64
2019-03-13T00:27:59.964Z,98061.52
2019-03-13T00:30:31.234Z,98051.54
2019-03-13T00:33:02.769Z,98049.31
2019-03-13T00:35:36.829Z,98050.20
2019-03-13T00:38:09.761Z,98038.39
2019-03-13T00:40:42.773Z,98033.85
2019-03-13T00:43:15.115Z,98026.55
2019-03-13T00:45:48.944Z,98022.02
2019-03-13T00:48:20.665Z,98006.56
2019-03-13T00:50:52.864Z,98007.88
2019-03-13T00:53:25.266Z,98009.90
2019-03-13T00:55:56.861Z,98007.17
2019-03-13T00:58:29.849Z,97999.80
2019-03-13T01:01:27.507Z,97997.77
2019-03-13T01:04:09.737Z,98008.87
2019-03-13T01:06:47.649Z,97993.12
2019-03-13T01:09:20.948Z,97981.63
2019-03-13T01:11:53.922Z,97991.02
2019-03-13T01:14:26.973Z,97974.59
2019-03-13T01:16:59.911Z,97971.43
2019-03-13T01:19:32.162Z,97970.93
2019-03-13T01:22:06.081Z,97966.99
2019-03-13T01:24:40.090Z,97965.87
2019-03-13T01:27:13.118Z,97964.88
2019-03-13T01:29:45.328Z,97958.13
2019-03-13T01:32:36.848Z,97954.78
2019-03-13T01:35:31.652Z,97960.95
2019-03-13T01:38:02.980Z,97967.42
2019-03-13T01:40:35.169Z,97957.80
2019-03-13T01:43:07.364Z,97936.39
2019-03-13T01:45:39.213Z,97936.00
2019-03-13T01:48:12.177Z,97913.48
2019-03-13T01:50:44.046Z,97913.18
2019-03-13T01:53:15.291Z,97907.21
2019-03-13T01:55:49.352Z,97897.52
2019-03-13T01:58:22.240Z,97891.98
2019-03-13T02:00:54.228Z,97896.63
2019-03-13T02:03:27.225Z,97883.28
2019-03-13T02:06:00.235Z,97886.94
2019-03-13T02:08:34.220Z,97887.63
2019-03-13T02:11:06.241Z,97884.20
2019-03-13T02:13:38.251Z,97883.58
2019-03-13T02:16:11.173Z,97876.92
2019-03-13T02:18:43.574Z,97874.91
2019-03-13T02:21:17.225Z,97866.31
2019-03-13T02:23:51.323Z,97873.88
2019-03-13T02:26:24.330Z,97877.10
2019-03-13T02:28:57.299Z,97875.88
2019-03-13T02:31:30.445Z,97878.92
2019-03-13T02:34:03.305Z,97881.36
2019-03-13T02:36:36.388Z,97879.73
2019-03-13T02:39:09.461Z,97862.66
2019-03-13T02:41:42.257Z,97871.12
2019-03-13T02:44:15.524Z,97876.38
2019-03-13T02:46:48.553Z,97869.41
2019-03-13T02:49:22.306Z,97873.44
2019-03-13T02:51:54.309Z,97870.18
2019-03-13T02:54:27.551Z,97855.83
2019-03-13T02:57:00.467Z,97847.53
2019-03-13T02:59:33.355Z,97845.62
2019-03-13T03:02:21.357Z,97842.05
2019-03-13T03:04:54.370Z,97832.24
2019-03-13T03:07:27.495Z,97827.58
2019-03-13T03:10:00.466Z,97838.27
2019-03-13T03:12:33.560Z,97837.77
2019-03-13T03:15:09.871Z,97845.25
2019-03-13T03:17:42.633Z,97838.09
2019-03-13T03:20:17.120Z,97831.11
2019-03-13T03:22:48.560Z,97836.86
2019-03-13T03:25:20.433Z,97837.78
2019-03-13T03:27:54.608Z,97821.73
2019-03-13T03:30:27.759Z,97831.66
2019-03-13T03:33:00.535Z,97838.33
2019-03-13T03:35:31.908Z,97832.48
2019-03-13T03:38:04.841Z,97845.30
2019-03-13T03:40:36.479Z,97851.46
2019-03-13T03:43:10.289Z,97841.36
2019-03-13T03:45:42.839Z,97843.09
2019-03-13T03:48:15.895Z,97857.34
2019-03-13T03:50:48.765Z,97853.50
2019-03-13T03:53:21.660Z,97861.79
2019-03-13T03:55:54.676Z,97867.14
2019-03-13T03:58:29.716Z,97871.17
2019-03-13T04:01:00.715Z,97900.56
2019-03-13T04:03:33.011Z,97935.41
2019-03-13T04:06:04.373Z,97951.98
2019-03-13T04:08:38.146Z,97953.13
2019-03-13T04:11:09.950Z,97983.45
2019-03-13T04:13:44.602Z,97994.14
2019-03-13T04:16:15.671Z,98014.95
2019-03-13T04:18:48.665Z,97999.66
2019-03-13T04:21:21.867Z,98019.78
2019-03-13T04:23:54.727Z,98017.11
2019-03-13T04:26:26.732Z,98019.13
2019-03-13T04:28:59.884Z,98021.55
2019-03-13T04:31:34.011Z,98006.34
2019-03-13T04:34:06.908Z,98017.49
2019-03-13T04:36:40.989Z,98010.60
2019-03-13T04:39:13.926Z,98006.41
2019-03-13T04:41:45.316Z,98000.65
2019-03-13T04:44:19.261Z,98006.83
2019-03-13T04:46:52.030Z,98017.86
2019-03-13T04:49:24.937Z,98026.79
2019-03-13T04:51:57.940Z,98022.75
2019-03-13T04:54:29.958Z,98030.65
2019-03-13T04:57:05.646Z,98034.19
2019-03-13T04:59:36.961Z,98021.39
2019-03-13T05:02:11.118Z,98029.18
2019-03-13T05:04:43.877Z,98043.61
2019-03-13T05:07:16.012Z,98029.66
2019-03-13T05:09:49.020Z,98033.08
2019-03-13T05:12:22.180Z,98026.30
2019-03-13T05:14:55.013Z,98033.70
2019-03-13T05:17:29.072Z,98027.13
2019-03-13T05:20:01.153Z,98023.45
2019-03-13T05:22:35.048Z,98028.30
2019-03-13T05:25:08.249Z,98039.22
2019-03-13T05:27:41.033Z,98051.16
2019-03-13T05:30:14.180Z,98054.38
2019-03-13T05:32:45.618Z,98061.27
2019-03-13T05:35:19.883Z,98064.49
2019-03-13T05:37:54.118Z,98058.72
2019-03-13T05:40:27.885Z,98069.34
2019-03-13T05:42:59.963Z,98061.25
2019-03-13T05:45:32.178Z,98070.55
2019-03-13T05:48:04.297Z,98080.25
2019-03-13T05:50:38.396Z,98083.87
2019-03-13T05:53:11.037Z,98090.40
2019-03-13T05:55:45.384Z,98101.30
2019-03-13T05:58:18.107Z,98112.64
2019-03-13T06:00:52.395Z,98119.18
2019-03-13T06:03:25.849Z,98124.88
2019-03-13T06:05:58.314Z,98133.84
2019-03-13T06:08:31.173Z,98145.29
2019-03-13T06:11:03.444Z,98150.48
2019-03-13T06:13:37.471Z,98152.85
2019-03-13T06:16:10.200Z,98148.43
2019-03-13T06:18:43.435Z,98161.81
2019-03-13T06:21:16.017Z,98152.66
2019-03-13T06:23:48.341Z,98162.70
2019-03-13T06:26:21.595Z,98163.17
2019-03-13T06:28:54.474Z,98165.08
2019-03-13T06:31:26.527Z,98173.61
2019-03-13T06:34:00.531Z,98184.95
2019-03-13T06:36:33.508Z,98192.86
2019-03-13T06:39:07.879Z,98201.00
2019-03-13T06:41:39.409Z,98203.64
2019-03-13T06:44:12.391Z,98206.05
2019-03-13T06:46:45.576Z,98218.31
2019-03-13T06:49:21.091Z,98222.43
2019-03-13T06:51:55.328Z,98221.89
2019-03-13T06:54:27.559Z,98219.79
2019-03-13T06:57:00.626Z,98224.37
2019-03-13T06:59:56.756Z,98230.69
2019-03-13T07:02:39.559Z,98235.47
2019-03-13T07:05:25.555Z,98240.63
2019-03-13T07:08:22.292Z,98232.72
2019-03-13T07:11:06.286Z,98246.59
2019-03-13T07:14:17.012Z,98254.63
2019-03-13T07:17:02.685Z,98254.63
2019-03-13T07:20:12.595Z,98257.72
2019-03-13T07:23:00.406Z,98249.63
2019-03-13T07:25:46.884Z,98245.30
2019-03-13T07:28:39.367Z,98261.31
2019-03-13T07:31:35.754Z,98270.48
2019-03-13T07:34:31.986Z,98267.41
2019-03-13T07:37:11.145Z,98274.41
2019-03-13T07:40:22.164Z,98276.97
2019-03-13T07:43:04.852Z,98280.44
2019-03-13T07:45:47.128Z,98266.66
2019-03-13T07:48:43.691Z,98275.64
2019-03-13T07:51:26.898Z,98280.33
2019-03-13T07:54:18.783Z,98291.28
2019-03-13T07:57:19.751Z,98287.67
2019-03-13T08:00:21.249Z,98303.17
2019-03-13T08:03:00.614Z,98315.22
2019-03-13T08:05:53.038Z,98313.78
2019-03-13T08:08:50.891Z,98314.84
2019-03-13T08:11:40.253Z,98321.52
2019-03-13T08:14:40.817Z,98322.13
2019-03-13T08:17:35.353Z,98330.21
2019-03-13T08:20:35.354Z,98312.81
2019-03-13T08:23:26.873Z,98336.06
2019-03-13T08:26:36.022Z,98336.09
2019-03-13T08:29:17.269Z,98343.33
2019-03-13T08:32:14.017Z,98335.11
2019-03-13T08:34:54.518Z,98337.00
2019-03-13T08:37:49.685Z,98344.50
2019-03-13T08:40:46.862Z,98334.77
2019-03-13T08:43:32.401Z,98336.95
2019-03-13T08:46:36.255Z,98342.30
2019-03-13T08:49:41.120Z,98345.95
2019-03-13T08:52:31.759Z,98341.12
2019-03-13T08:55:22.012Z,98325.97
2019-03-13T08:58:14.026Z,98325.20
2019-03-13T09:00:58.482Z,98323.28
2019-03-13T09:03:36.216Z,98314.14
2019-03-13T09:06:32.099Z,98316.80
2019-03-13T09:09:42.195Z,98314.88
2019-03-13T09:12:40.661Z,98304.70
2019-03-13T09:15:29.904Z,98296.03
2019-03-13T09:18:23.120Z,98300.92
2019-03-13T09:21:05.844Z,98304.70
2019-03-13T09:23:51.321Z,98305.42
2019-03-13T09:26:52.211Z,98294.36
2019-03-13T09:29:44.462Z,98304.44
2019-03-13T09:32:36.504Z,98300.14
2019-03-13T09:35:26.988Z,98306.19
2019-03-13T09:38:17.243Z,98300.77
2019-03-13T09:41:08.141Z,98303.02
2019-03-13T09:44:12.510Z,98309.29
2019-03-13T09:47:03.916Z,98310.93
2019-03-13T09:49:55.688Z,98306.70
2019-03-13T09:53:06.593Z,98303.96
2019-03-13T09:56:13.733Z,98302.04
2019-03-13T09:59:22.405Z,98295.92
2019-03-13T10:02:13.004Z,98292.81
2019-03-13T10:04:57.073Z,98291.13
2019-03-13T10:07:55.484Z,98289.05
2019-03-13T10:10:43.425Z,98289.03
2019-03-13T10:13:30.777Z,98287.25
2019-03-13T10:16:24.612Z,98291.66
2019-03-13T10:19:21.681Z,98288.44
2019-03-13T10:22:10.330Z,98295.58
2019-03-13T10:24:59.534Z,98293.70
2019-03-13T10:28:05.634Z,98299.44
2019-03-13T10:30:53.705Z,98294.86
2019-03-13T10:33:33.689Z,98292.99
2019-03-13T10:36:36.781Z,98289.36
2019-03-13T10:39:15.974Z,98281.96
2019-03-13T10:42:08.584Z,98280.52
2019-03-13T10:44:59.513Z,98278.41
2019-03-13T10:47:40.902Z,98267.52
2019-03-13T10:50:45.624Z,98277.34
2019-03-13T10:53:47.935Z,98264.00
2019-03-13T10:56:58.063Z,98277.83
2019-03-13T10:59:50.934Z,98269.23
2019-03-13T11:02:49.336Z,98255.25
2019-03-13T11:05:52.518Z,98255.25
2019-03-13T11:08:36.153Z,98270.96
2019-03-13T11:11:24.293Z,98254.91
2019-03-13T11:14:15.985Z,98140.34
2019-03-13T11:16:59.654Z,98251.59
2019-03-13T11:19:47.354Z,98263.66
2019-03-13T11:22:45.096Z,98249.00
2019-03-13T11:25:26.745Z,98253.84
2019-03-13T11:28:21.455Z,98246.36
2019-03-13T11:31:14.685Z,98254.58
2019-03-13T11:34:01.316Z,98249.20
2019-03-13T11:36:49.627Z,98254.25
2019-03-13T11:39:36.877Z,98248.05
2019-03-13T11:42:33.281Z,98250.48
2019-03-13T11:45:41.418Z,98243.25
2019-03-13T11:48:23.386Z,98232.15
2019-03-13T11:51:22.945Z,98238.33
2019-03-13T11:54:17.019Z,98234.09
2019-03-13T11:57:14.018Z,98244.25
2019-03-13T12:00:05.810Z,98230.59
2019-03-13T12:02:59.340Z,98229.82
2019-03-13T12:05:50.537Z,98225.29
2019-03-13T12:08:34.518Z,98209.23
2019-03-13T12:11:35.193Z,98217.56
2019-03-13T12:14:15.999Z,98211.13
2019-03-13T12:16:54.199Z,98208.44
2019-03-13T12:19:38.472Z,98202.03
2019-03-13T12:22:30.047Z,98196.92
2019-03-13T12:25:32.772Z,98187.56
2019-03-13T12:28:23.040Z,98193.61
2019-03-13T12:31:15.064Z,98188.20
2019-03-13T12:34:05.462Z,98182.20
2019-03-13T12:37:02.931Z,98182.20
2019-03-13T12:40:04.216Z,98190.12
2019-03-13T12:42:53.977Z,98170.96
2019-03-13T12:45:49.478Z,98167.83
2019-03-13T12:48:49.805Z,98173.30
2019-03-13T12:51:34.281Z,98159.76
2019-03-13T12:54:25.124Z,98151.77
2019-03-13T12:57:18.941Z,98148.63
2019-03-13T13:00:20.566Z,98144.84
2019-03-13T13:03:20.179Z,98133.06
2019-03-13T13:06:03.585Z,98128.25
2019-03-13T13:08:56.207Z,98128.01
2019-03-13T13:11:46.461Z,98114.16
2019-03-13T13:14:44.409Z,98113.05
2019-03-13T13:17:43.293Z,98118.16
2019-03-13T13:20:16.289Z,98099.47
2019-03-13T13:22:49.387Z,98096.27
2019-03-13T13:25:22.361Z,98101.89
2019-03-13T13:27:55.336Z,98113.09
2019-03-13T13:30:29.243Z,98122.69
2019-03-13T13:33:02.252Z,98126.68
2019-03-13T13:35:35.523Z,98139.14
2019-03-13T13:38:10.107Z,98143.30
2019-03-13T13:40:43.557Z,98142.92
2019-03-13T13:43:16.348Z,98144.36
2019-03-13T13:45:56.431Z,98133.13
2019-03-13T13:48:28.470Z,98132.94
2019-03-13T13:51:01.491Z,98132.94
2019-03-13T13:53:35.046Z,98133.09
2019-03-13T13:56:06.539Z,98125.87
2019-03-13T13:58:40.467Z,98121.30
2019-03-13T14:01:13.835Z,98111.77
2019-03-13T14:03:46.003Z,98113.63
2019-03-13T14:06:19.524Z,98113.36
2019-03-13T14:08:52.451Z,98108.88
2019-03-13T14:11:25.576Z,98115.55
2019-03-13T14:13:59.503Z,98104.96
2019-03-13T14:16:30.774Z,98109.83
2019-03-13T14:19:04.805Z,98100.28
2019-03-13T14:21:37.465Z,98098.42
2019-03-13T14:24:10.473Z,98098.75
2019-03-13T14:26:45.052Z,98098.45
2019-03-13T14:29:17.564Z,98093.41
2019-03-13T14:31:49.718Z,98082.79
2019-03-13T14:34:21.436Z,98076.14
2019-03-13T14:36:52.805Z,98076.14
2019-03-13T14:39:25.572Z,98074.27
2019-03-13T14:42:00.313Z,98068.41
2019-03-13T14:44:33.496Z,98067.31
2019-03-13T14:47:07.827Z,98058.78
2019-03-13T14:49:40.614Z,98047.88
2019-03-13T14:52:13.996Z,98053.51
2019-03-13T14:54:46.324Z,98041.50
2019-03-13T14:57:19.739Z,98045.25
2019-03-13T14:59:52.926Z,98042.05
2019-03-13T15:02:25.940Z,98042.05
2019-03-13T15:04:57.678Z,98045.78
2019-03-13T15:07:29.759Z,98043.92
2019-03-13T15:10:02.948Z,98048.17
2019-03-13T15:12:34.848Z,98039.91
2019-03-13T15:15:08.487Z,98034.01
2019-03-13T15:17:41.832Z,98042.02
2019-03-13T15:20:15.495Z,98042.30
2019-03-13T15:22:46.854Z,98047.36
2019-03-13T15:25:20.119Z,98048.69
2019-03-13T15:27:55.864Z,98047.88
2019-03-13T15:30:27.865Z,98069.97
2019-03-13T15:32:59.146Z,98073.00
2019-03-13T15:35:32.431Z,98063.96
2019-03-13T15:38:05.080Z,98075.00
2019-03-13T15:40:38.173Z,98079.17
2019-03-13T15:43:11.040Z,98085.64
2019-03-13T15:45:43.729Z,98097.80
2019-03-13T15:48:17.022Z,98100.93
2019-03-13T15:50:49.991Z,98099.52
2019-03-13T15:53:22.914Z,98116.59
2019-03-13T15:55:55.992Z,98104.45
2019-03-13T15:58:27.997Z,98081.69
2019-03-13T16:01:00.052Z,98089.03
2019-03-13T16:03:33.175Z,98084.89
2019-03-13T16:06:05.096Z,98081.34
2019-03-13T16:08:37.979Z,98078.69
2019-03-13T16:11:11.144Z,98078.14
2019-03-13T16:13:43.959Z,98086.56
2019-03-13T16:16:17.240Z,98082.75
2019-03-13T16:18:50.128Z,98077.44
2019-03-13T16:21:22.937Z,98084.32
2019-03-13T16:23:56.209Z,98086.40
2019-03-13T16:26:29.114Z,98086.89
2019-03-13T16:29:02.199Z,98093.75
2019-03-13T16:31:35.323Z,98098.74
2019-03-13T16:34:08.673Z,98102.70
2019-03-13T16:36:40.029Z,98107.89
2019-03-13T16:39:13.164Z,98107.39
2019-03-13T16:41:46.519Z,98076.21
2019-03-13T16:44:20.264Z,98099.19
2019-03-13T16:46:53.264Z,98101.52
2019-03-13T16:49:27.136Z,98098.02
2019-03-13T16:51:59.473Z,98095.82
2019-03-13T16:54:30.926Z,98097.27
2019-03-13T16:57:05.145Z,98093.91
2019-03-13T16:59:39.347Z,98096.37
2019-03-13T17:02:12.841Z,98097.83
2019-03-13T17:04:46.000Z,98102.51
2019-03-13T17:07:19.431Z,98103.02
2019-03-13T17:09:52.405Z,98106.41
2019-03-13T17:12:25.343Z,98101.61
2019-03-13T17:14:59.368Z,98102.05
2019-03-13T17:17:32.233Z,98105.17
2019-03-13T17:20:06.244Z,98105.42
2019-03-13T17:22:43.171Z,98112.53
2019-03-13T17:25:15.698Z,98135.03
2019-03-13T17:27:47.011Z,98154.80
2019-03-13T17:30:24.330Z,98147.23
2019-03-13T17:32:56.305Z,98141.23
2019-03-13T17:35:28.440Z,98144.99
2019-03-13T17:38:00.401Z,98145.20
2019-03-13T17:40:34.566Z,98145.68
2019-03-13T17:43:07.628Z,98137.42
2019-03-13T17:45:38.892Z,98135.25
2019-03-13T17:48:10.442Z,98148.52
2019-03-13T17:50:43.398Z,98157.66
2019-03-13T17:53:16.515Z,98159.75
2019-03-13T17:55:49.556Z,98158.44
2019-03-13T17:58:22.795Z,98171.13
2019-03-13T18:00:55.670Z,98182.59
2019-03-13T18:03:28.648Z,98187.25
2019-03-13T18:06:01.540Z,98203.84
2019-03-13T18:08:34.624Z,98200.47
2019-03-13T18:11:07.507Z,98200.92
2019-03-13T18:13:40.672Z,98198.33
2019-03-13T18:16:13.678Z,98189.73
2019-03-13T18:18:46.602Z,98192.39
2019-03-13T18:21:19.659Z,98189.19
2019-03-13T18:23:52.744Z,98188.83
2019-03-13T18:26:26.644Z,98183.69
2019-03-13T18:28:58.650Z,98183.27
2019-03-13T18:31:33.307Z,98187.47
2019-03-13T18:34:04.650Z,98189.02
2019-03-13T18:36:37.731Z,98191.84
2019-03-13T18:39:10.856Z,98188.66
2019-03-13T18:41:43.741Z,98191.81
2019-03-13T18:44:16.795Z,98187.34
2019-03-13T18:46:49.641Z,98191.84
2019-03-13T18:49:21.932Z,98192.77
2019-03-13T18:51:53.896Z,98186.23
2019-03-13T18:54:27.933Z,98194.03
2019-03-13T18:57:00.943Z,98188.00
2019-03-13T18:59:33.184Z,98182.52
2019-03-13T19:02:04.782Z,98184.72
2019-03-13T19:04:36.955Z,98179.43
2019-03-13T19:07:11.076Z,98184.00
2019-03-13T19:09:43.421Z,98183.56
2019-03-13T19:12:14.816Z,98191.04
2019-03-13T19:14:46.594Z,98190.31
2019-03-13T19:17:18.147Z,98191.19
2019-03-13T19:19:49.954Z,98195.75
2019-03-13T19:22:23.079Z,98208.58
2019-03-13T19:24:56.019Z,98209.23
2019-03-13T19:27:29.176Z,98210.83
2019-03-13T19:30:02.090Z,98213.78
2019-03-13T19:32:35.092Z,98217.67
2019-03-13T19:35:08.298Z,98208.34
2019-03-13T19:37:42.029Z,98217.72
2019-03-13T19:40:15.793Z,98215.94
2019-03-13T19:42:47.441Z,98219.09
2019-03-13T19:45:26.213Z,98216.49
2019-03-13T19:48:01.390Z,98216.45
2019-03-13T19:50:36.895Z,98215.64
2019-03-13T19:53:11.110Z,98212.02
2019-03-13T19:55:42.980Z,98209.66
2019-03-13T19:58:17.098Z,98195.99
2019-03-13T20:00:50.409Z,98211.94
2019-03-13T20:03:23.200Z,98195.52
2019-03-13T20:05:56.230Z,98205.65
2019-03-13T20:08:29.992Z,98207.47
2019-03-13T20:11:02.265Z,98202.34
2019-03-13T20:13:35.175Z,98198.30
2019-03-13T20:16:08.615Z,98192.72
2019-03-13T20:18:41.013Z,98191.98
2019-03-13T20:21:14.306Z,98191.44
2019-03-13T20:23:46.698Z,98187.12
2019-03-13T20:26:18.162Z,98176.77
2019-03-13T20:28:49.537Z,98183.87
2019-03-13T20:31:23.334Z,98180.64
2019-03-13T20:33:56.250Z,98172.42
2019-03-13T20:36:29.351Z,98169.51
2019-03-13T20:39:02.497Z,98177.25
2019-03-13T20:41:35.223Z,98166.09
2019-03-13T20:44:08.765Z,98159.22
2019-03-13T20:46:42.820Z,98165.58
2019-03-13T20:49:14.554Z,98173.02
2019-03-13T20:51:46.474Z,98167.97
2019-03-13T20:54:21.507Z,98163.59
2019-03-13T20:56:53.329Z,98154.64
2019-03-13T20:59:26.456Z,98152.55
2019-03-13T21:02:00.409Z,98150.41
2019-03-13T21:04:32.522Z,98148.59
2019-03-13T21:07:06.492Z,98149.37
2019-03-13T21:09:38.480Z,98147.47
2019-03-13T21:12:11.572Z,98137.18
2019-03-13T21:14:43.278Z,98147.14
2019-03-13T21:17:16.964Z,98139.66
2019-03-13T21:19:50.393Z,98140.80
2019-03-13T21:22:23.589Z,98141.92
2019-03-13T21:24:55.534Z,98146.04
2019-03-13T21:27:29.407Z,98144.86
2019-03-13T21:30:02.406Z,98149.56
2019-03-13T21:32:35.649Z,98143.30
2019-03-13T21:35:08.570Z,98142.41
2019-03-13T21:37:42.641Z,98147.86
2019-03-13T21:40:15.326Z,98144.05
2019-03-13T21:42:46.787Z,98138.38
2019-03-13T21:45:22.860Z,98139.30
2019-03-13T21:47:56.541Z,98139.76
2019-03-13T21:50:29.714Z,98140.36
2019-03-13T21:53:02.549Z,98139.08
2019-03-13T21:55:35.553Z,98142.63
2019-03-13T21:58:08.569Z,98142.95
2019-03-13T22:00:42.565Z,98147.63
2019-03-13T22:03:27.363Z,98148.66
2019-03-13T22:05:47.502Z,98147.03
2019-03-13T22:08:21.731Z,98144.99
2019-03-13T22:10:53.644Z,98140.33
2019-03-13T22:13:28.369Z,98142.08
2019-03-13T22:16:00.701Z,98133.66
2019-03-13T22:18:32.612Z,98132.42
2019-03-13T22:21:05.581Z,98133.24
2019-03-13T22:23:40.203Z,98132.74
2019-03-13T22:26:11.675Z,98131.42
2019-03-13T22:28:46.074Z,98122.30
2019-03-13T22:31:17.746Z,98119.07
2019-03-13T22:33:50.858Z,98121.75
2019-03-13T22:36:23.671Z,98117.56
2019-03-13T22:38:56.824Z,98119.55
2019-03-13T22:41:30.669Z,98115.16
2019-03-13T22:44:02.686Z,98110.66
2019-03-13T22:46:37.427Z,98115.17
2019-03-13T22:49:10.870Z,98109.86
2019-03-13T22:51:43.817Z,98099.97
2019-03-13T22:54:16.901Z,98097.00
2019-03-13T22:56:49.727Z,98095.72
2019-03-13T22:59:21.912Z,98093.42
2019-03-13T23:01:53.856Z,98099.45
2019-03-13T23:04:27.784Z,98091.41
2019-03-13T23:07:01.851Z,98084.38
2019-03-13T23:09:37.490Z,98084.00
2019-03-13T23:12:10.161Z,98093.25
2019-03-13T23:14:41.745Z,98090.53
2019-03-13T23:17:14.817Z,98085.98
2019-03-13T23:19:46.892Z,98086.88
2019-03-13T23:22:19.871Z,98082.53
2019-03-13T23:24:53.680Z,98078.65
2019-03-13T23:27:25.604Z,98087.00
2019-03-13T23:29:58.993Z,98099.12
2019-03-13T23:32:31.116Z,98100.22
2019-03-13T23:35:04.665Z,98111.37
2019-03-13T23:37:37.402Z,98121.05
2019-03-13T23:40:08.955Z,98114.89
2019-03-13T23:42:41.994Z,98118.17
2019-03-13T23:45:15.237Z,98116.69
2019-03-13T23:47:46.941Z,98121.14
2019-03-13T23:50:20.019Z,98123.06
2019-03-13T23:52:53.000Z,98116.96
2019-03-13T23:55:25.969Z,98113.88
2019-03-13T23:57:58.007Z,98108.13
